地図

経路データ

SID SEASON NUMBER BASIN SUBBASIN NAME ISO_TIME NATURE LAT LON WMO_WIND WMO_PRES WMO_AGENCY TRACK_TYPE DIST2LAND LANDFALL IFLAG USA_AGENCY USA_ATCF_ID USA_LAT USA_LON USA_RECORD USA_STATUS USA_WIND USA_PRES USA_SSHS USA_R34_NE USA_R34_SE USA_R34_SW USA_R34_NW USA_R50_NE USA_R50_SE USA_R50_SW USA_R50_NW USA_R64_NE USA_R64_SE USA_R64_SW USA_R64_NW USA_POCI USA_ROCI USA_RMW USA_EYE TOKYO_LAT TOKYO_LON TOKYO_GRADE TOKYO_WIND TOKYO_PRES TOKYO_R50_DIR TOKYO_R50_LONG TOKYO_R50_SHORT TOKYO_R30_DIR TOKYO_R30_LONG TOKYO_R30_SHORT TOKYO_LAND CMA_LAT CMA_LON CMA_CAT CMA_WIND CMA_PRES HKO_LAT HKO_LON HKO_CAT HKO_WIND HKO_PRES NEWDELHI_LAT NEWDELHI_LON NEWDELHI_GRADE NEWDELHI_WIND NEWDELHI_PRES NEWDELHI_CI NEWDELHI_DP NEWDELHI_POCI REUNION_LAT REUNION_LON REUNION_TYPE REUNION_WIND REUNION_PRES REUNION_TNUM REUNION_CI REUNION_RMW REUNION_R34_NE REUNION_R34_SE REUNION_R34_SW REUNION_R34_NW REUNION_R50_NE REUNION_R50_SE REUNION_R50_SW REUNION_R50_NW REUNION_R64_NE REUNION_R64_SE REUNION_R64_SW REUNION_R64_NW BOM_LAT BOM_LON BOM_TYPE BOM_WIND BOM_PRES BOM_TNUM BOM_CI BOM_RMW BOM_R34_NE BOM_R34_SE BOM_R34_SW BOM_R34_NW BOM_R50_NE BOM_R50_SE BOM_R50_SW BOM_R50_NW BOM_R64_NE BOM_R64_SE BOM_R64_SW BOM_R64_NW BOM_ROCI BOM_POCI BOM_EYE BOM_POS_METHOD BOM_PRES_METHOD NADI_LAT NADI_LON NADI_CAT NADI_WIND NADI_PRES WELLINGTON_LAT WELLINGTON_LON WELLINGTON_WIND WELLINGTON_PRES DS824_LAT DS824_LON DS824_STAGE DS824_WIND DS824_PRES TD9636_LAT TD9636_LON TD9636_STAGE TD9636_WIND TD9636_PRES TD9635_LAT TD9635_LON TD9635_WIND TD9635_PRES TD9635_ROCI NEUMANN_LAT NEUMANN_LON NEUMANN_CLASS NEUMANN_WIND NEUMANN_PRES MLC_LAT MLC_LON MLC_CLASS MLC_WIND MLC_PRES USA_GUST BOM_GUST BOM_GUST_PER REUNION_GUST REUNION_GUST_PER USA_SEAHGT USA_SEARAD_NE USA_SEARAD_SE USA_SEARAD_SW USA_SEARAD_NW STORM_SPEED STORM_DIR
1897252N30305 1897 25 NA NA NOT_NAMED 1897-09-08 12:00:00 TS 29.5000 -55.0000 main 1640 1640 _____________O -1 29.5000 -55.0000 TD 25 6 28
1897252N30305 1897 25 NA NA NOT_NAMED 1897-09-08 15:00:00 TS 29.7500 -54.8501 main 1671 1671 _____________P -1 29.7500 -54.8501 TD 27 6 28
1897252N30305 1897 25 NA NA NOT_NAMED 1897-09-08 18:00:00 TS 30.0000 -54.7000 main 1701 1701 _____________O -1 30.0000 -54.7000 TD 30 6 28
1897252N30305 1897 25 NA NA NOT_NAMED 1897-09-08 21:00:00 TS 30.2500 -54.5499 main 1730 1730 _____________P -1 30.2500 -54.5499 TD 32 6 28
1897252N30305 1897 25 NA NA NOT_NAMED 1897-09-09 00:00:00 TS 30.5000 -54.4000 main 1736 1719 _____________O -1 30.5000 -54.4000 TS 35 6 28
1897252N30305 1897 25 NA NA NOT_NAMED 1897-09-09 03:00:00 TS 30.7500 -54.2499 main 1722 1693 _____________P -1 30.7500 -54.2499 TS 40 6 27
1897252N30305 1897 25 NA NA NOT_NAMED 1897-09-09 06:00:00 TS 31.0000 -54.1000 main 1693 1672 _____________O -1 31.0000 -54.1000 TS 45 5 16
1897252N30305 1897 25 NA NA NOT_NAMED 1897-09-09 09:00:00 TS 31.2107 -54.0976 main 1672 1647 _____________P -1 31.2107 -54.0976 TS 50 6 27
1897252N30305 1897 25 NA NA NOT_NAMED 1897-09-09 12:00:00 TS 31.5000 -53.8000 main 1650 1636 _____________O -1 31.5000 -53.8000 TS 55 13 56
1897252N30305 1897 25 NA NA NOT_NAMED 1897-09-09 15:00:00 TS 31.9643 -52.8015 main 1625 1575 _____________P -1 31.9643 -52.8015 TS 60 22 63
1897252N30305 1897 25 NA NA NOT_NAMED 1897-09-09 18:00:00 TS 32.5000 -51.5000 main 1575 1532 _____________O -1 32.5000 -51.5000 HU 65 23 63
1897252N30305 1897 25 NA NA NOT_NAMED 1897-09-09 21:00:00 TS 32.9987 -50.3561 main 1532 1494 _____________P -1 32.9987 -50.3561 HU 65 22 63
1897252N30305 1897 25 NA NA NOT_NAMED 1897-09-10 00:00:00 TS 33.5000 -49.2000 main 1496 1466 _____________O -1 33.5000 -49.2000 HU 65 22 63
1897252N30305 1897 25 NA NA NOT_NAMED 1897-09-10 03:00:00 TS 33.9993 -47.9989 main 1468 1445 _____________P -1 33.9993 -47.9989 HU 65 22 63
1897252N30305 1897 25 NA NA NOT_NAMED 1897-09-10 06:00:00 TS 34.5000 -46.8000 main 1449 1440 _____________O -1 34.5000 -46.8000 HU 65 22 65
1897252N30305 1897 25 NA NA NOT_NAMED 1897-09-10 09:00:00 TS 34.9015 -45.6295 main 1448 1426 _____________P -1 34.9015 -45.6295 HU 65 21 62
1897252N30305 1897 25 NA NA NOT_NAMED 1897-09-10 12:00:00 TS 35.5000 -44.5000 main 1431 1384 _____________O -1 35.5000 -44.5000 HU 65 25 48
1897252N30305 1897 25 NA NA NOT_NAMED 1897-09-10 15:00:00 TS 36.5591 -43.3862 main 1375 1326 _____________P -1 36.5591 -43.3862 HU 65 29 38
1897252N30305 1897 25 NA NA NOT_NAMED 1897-09-10 18:00:00 TS 37.8000 -42.3000 main 1323 1291 _____________O -1 37.8000 -42.3000 HU 65 29 36
1897252N30305 1897 25 NA NA NOT_NAMED 1897-09-10 21:00:00 TS 38.8988 -41.2383 main 1296 1276 _____________P -1 38.8988 -41.2383 HU 65 27 37
1897252N30305 1897 25 NA NA NOT_NAMED 1897-09-11 00:00:00 TS 40.0000 -40.2000 main 1275 1266 _____________O -1 40.0000 -40.2000 HU 65 28 35
1897252N30305 1897 25 NA NA NOT_NAMED 1897-09-11 03:00:00 TS 41.1490 -39.1471 main 1274 1263 _____________P -1 41.1490 -39.1471 HU 65 28 35
1897252N30305 1897 25 NA NA NOT_NAMED 1897-09-11 06:00:00 TS 42.3000 -38.1000 main 1273 1272 _____________O -1 42.3000 -38.1000 HU 65 28 35
1897252N30305 1897 25 NA NA NOT_NAMED 1897-09-11 09:00:00 TS 43.4607 -36.9698 main 1287 1287 _____________P -1 43.4607 -36.9698 HU 62 27 35
1897252N30305 1897 25 NA NA NOT_NAMED 1897-09-11 12:00:00 TS 44.5000 -36.0000 main 1316 1313 _____________O -1 44.5000 -36.0000 TS 60 21 31
1897252N30305 1897 25 NA NA NOT_NAMED 1897-09-11 15:00:00 TS 45.3006 -35.4107 main 1333 1329 _____________P -1 45.3006 -35.4107 TS 57 17 25
1897252N30305 1897 25 NA NA NOT_NAMED 1897-09-11 18:00:00 ET 46.0000 -35.0000 main 1342 1342 _____________O -1 46.0000 -35.0000 EX 55 16 24
1897252N30305 1897 25 NA NA NOT_NAMED 1897-09-11 21:00:00 ET 46.7498 -34.4986 main 1363 1361 _____________P -1 46.7498 -34.4986 EX 52 16 25
1897252N30305 1897 25 NA NA NOT_NAMED 1897-09-12 00:00:00 ET 47.5000 -34.0000 main 1387 1387 _____________O -1 47.5000 -34.0000 EX 50 16 24
1897252N30305 1897 25 NA NA NOT_NAMED 1897-09-12 03:00:00 ET 48.2498 -33.4985 main 1417 1386 _____________P -1 48.2498 -33.4985 EX 47 16 24
1897252N30305 1897 25 NA NA NOT_NAMED 1897-09-12 06:00:00 ET 49.0000 -33.0000 main 1386 1328 _____________O -1 49.0000 -33.0000 EX 45 16 24
1897252N30305 1897 25 NA NA NOT_NAMED 1897-09-12 09:00:00 ET 49.7504 -32.5031 main 1321 1268 _____________P -1 49.7504 -32.5031 EX 42 16 23
1897252N30305 1897 25 NA NA NOT_NAMED 1897-09-12 12:00:00 ET 50.5000 -32.0000 main 1268 _____________O -1 50.5000 -32.0000 EX 40 16 23

IBTrACS Databaseについて

本データベースは、米国NOAAが公開する1842年以降の世界の熱帯低気圧のベストトラックデータアーカイブInternational Best Track Archive for Climate Stewardship (IBTrACS)を、ウェブで閲覧しやすい形式に変換したものです。

最終更新日:2021-10-21